Time;durP1;ratioP1;P1;durP2;ratioP2;P2;SDS_P1;SDS_P2;PMS_P1;PMS_P2;Temp;Humidity;BMP_temperature;BMP_pressure;BME280_temperature;BME280_humidity;BME280_pressure;Samples;Min_cycle;Max_cycle;Signal;HPM_P1;HPM_P2
2022/01/10 00:00:23;;;;;;;11.32;7.90;;;3.10;84.20;;;1.83;79.92;95158.91;3996082;34;20753;-84
2022/01/10 00:02:57;;;;;;;10.35;7.18;;;3.20;84.20;;;1.82;79.93;95160.81;3995660;34;20008;-84
2022/01/10 00:05:23;;;;;;;9.98;7.03;;;3.20;84.20;;;1.82;79.76;95150.00;3998360;34;20131;-84
2022/01/10 00:07:49;;;;;;;13.45;8.77;;;3.20;85.00;;;1.81;79.86;95148.38;4020180;34;20383;-84
2022/01/10 00:10:17;;;;;;;12.23;7.90;;;3.20;84.20;;;1.82;79.87;95155.41;4019967;34;20386;-84
2022/01/10 00:12:43;;;;;;;10.77;7.75;;;3.10;84.20;;;1.83;79.86;95159.75;4019912;34;20284;-83
2022/01/10 00:15:10;;;;;;;12.20;7.82;;;3.20;84.30;;;1.81;79.69;95159.16;4018550;34;20007;-84
2022/01/10 00:17:38;;;;;;;13.05;8.48;;;3.10;84.20;;;1.82;80.03;95160.81;4019777;34;20268;-83
2022/01/10 00:20:08;;;;;;;12.88;8.25;;;3.10;84.10;;;1.82;80.16;95163.50;4019139;34;20093;-84
2022/01/10 00:22:34;;;;;;;10.75;8.00;;;3.10;84.20;;;1.80;80.00;95162.91;3998698;34;20079;-84
2022/01/10 00:25:01;;;;;;;12.35;8.35;;;3.20;84.10;;;1.82;79.80;95166.19;3998278;34;20287;-84
2022/01/10 00:27:27;;;;;;;12.15;8.57;;;3.20;84.20;;;1.81;79.95;95163.72;4009732;34;20007;-83
2022/01/10 00:29:53;;;;;;;12.88;8.57;;;3.10;84.20;;;1.81;79.89;95175.34;3996566;34;20402;-84
2022/01/10 00:32:20;;;;;;;13.30;8.07;;;3.10;84.20;;;1.82;79.80;95168.06;4041560;34;20327;-84
2022/01/10 00:34:46;;;;;;;12.18;8.43;;;3.20;84.30;;;1.82;80.08;95171.59;4019046;34;20024;-84
2022/01/10 00:37:12;;;;;;;13.40;9.48;;;3.20;84.10;;;1.81;79.83;95175.34;4019524;34;20307;-84
2022/01/10 00:39:39;;;;;;;12.52;8.32;;;3.10;84.20;;;1.80;80.25;95176.41;4062973;34;20293;-83
2022/01/10 00:42:05;;;;;;;12.95;8.43;;;3.10;84.10;;;1.81;80.07;95175.34;3996769;34;20013;-84
2022/01/10 00:44:37;;;;;;;11.82;7.43;;;3.10;84.30;;;1.82;80.36;95181.56;4018294;34;20009;-83
2022/01/10 00:47:04;;;;;;;13.23;9.10;;;3.10;84.20;;;1.82;79.94;95174.28;3990900;34;20360;-84
2022/01/10 00:49:30;;;;;;;12.50;8.07;;;3.20;84.30;;;1.81;79.72;95169.94;4002664;34;19997;-84
2022/01/10 00:51:57;;;;;;;13.43;8.73;;;3.10;84.20;;;1.80;79.91;95165.63;4045960;34;20862;-84
2022/01/10 00:54:23;;;;;;;12.88;8.60;;;3.20;84.20;;;1.82;80.09;95166.19;4002640;34;19992;-84
2022/01/10 00:56:49;;;;;;;12.82;9.05;;;3.10;84.20;;;1.80;79.78;95168.31;4024009;34;20346;-84
2022/01/10 00:59:16;;;;;;;14.90;8.38;;;3.10;84.20;;;1.80;79.94;95160.22;4045659;34;20297;-83
2022/01/10 01:01:42;;;;;;;12.43;8.77;;;3.10;84.30;;;1.79;80.15;95160.47;4002874;34;20000;-84
2022/01/10 01:04:08;;;;;;;12.38;8.55;;;3.10;84.30;;;1.81;80.18;95163.72;4002953;34;19996;-84
2022/01/10 01:06:34;;;;;;;12.13;8.05;;;3.20;84.20;;;1.80;80.10;95160.22;3998045;34;20577;-85
2022/01/10 01:09:06;;;;;;;14.18;9.60;;;3.10;84.20;;;1.81;79.70;95158.31;4000554;34;20296;-85
2022/01/10 01:14:54;;;;;;;11.63;8.73;;;3.10;84.30;;;1.81;79.83;95159.16;4047551;34;20596;-84
2022/01/10 01:17:14;;;;;;;12.73;9.52;;;3.10;84.20;;;1.80;79.92;95157.53;4030493;34;20349;-85
2022/01/10 01:20:45;;;;;;;13.65;8.70;;;3.10;84.20;;;1.81;80.02;95161.03;4000712;34;20004;-85
2022/01/10 01:25:22;;;;;;;13.48;9.07;;;3.20;84.20;;;1.81;80.02;95163.72;4023832;34;19993;-84
2022/01/10 01:27:52;;;;;;;14.38;9.45;;;3.10;84.30;;;1.80;79.83;95164.81;4015898;34;20303;-85
2022/01/10 01:30:18;;;;;;;13.50;8.98;;;3.10;84.30;;;1.81;79.81;95153.75;3975484;34;20063;-85
2022/01/10 01:32:45;;;;;;;12.52;8.77;;;3.10;84.30;;;1.80;79.91;95154.81;4018245;34;20652;-85
2022/01/10 01:35:12;;;;;;;13.25;9.25;;;3.10;84.30;;;1.80;79.86;95152.13;4018218;34;20028;-84
2022/01/10 01:37:39;;;;;;;13.60;9.35;;;3.10;84.30;;;1.80;80.32;95148.63;3960298;34;20430;-85
2022/01/10 01:40:08;;;;;;;13.55;8.73;;;3.10;84.30;;;1.78;80.33;95143.44;3996556;34;20223;-84
2022/01/10 01:42:39;;;;;;;12.57;8.45;;;3.10;84.30;;;1.79;79.95;95138.88;3998763;34;20292;-85
2022/01/10 01:45:10;;;;;;;12.77;9.10;;;3.10;84.20;;;1.80;79.93;95140.53;4018543;34;20348;-85
2022/01/10 01:47:38;;;;;;;15.93;10.25;;;3.10;84.30;;;1.78;80.16;95148.84;4039558;34;20367;-84
2022/01/10 01:50:11;;;;;;;13.88;9.50;;;3.10;84.30;;;1.78;80.14;95143.44;4020559;34;20036;-85
2022/01/10 01:52:38;;;;;;;13.93;9.23;;;3.10;84.40;;;1.80;80.09;95145.91;4017091;34;20279;-84
2022/01/10 01:55:06;;;;;;;14.80;9.73;;;3.10;84.40;;;1.77;80.05;95141.81;4016585;34;20005;-85
2022/01/10 01:57:32;;;;;;;13.90;9.57;;;3.10;84.30;;;1.78;79.81;95139.94;4015064;34;20076;-84
2022/01/10 01:59:58;;;;;;;14.00;10.10;;;3.10;85.10;;;1.78;80.14;95140.75;4015046;34;20085;-85
2022/01/10 02:02:25;;;;;;;14.65;9.55;;;3.10;84.30;;;1.79;79.98;95145.09;4015607;34;20520;-85
2022/01/10 02:04:51;;;;;;;12.73;8.90;;;3.10;84.40;;;1.79;80.04;95138.88;4014509;34;20207;-85
2022/01/10 02:07:18;;;;;;;14.50;9.48;;;3.10;84.30;;;1.77;79.94;95147.19;4015015;34;20374;-84
2022/01/10 02:09:44;;;;;;;14.00;9.65;;;3.10;84.30;;;1.77;80.02;95139.09;4015241;34;20004;-85
2022/01/10 02:12:11;;;;;;;12.75;9.10;;;3.10;84.30;;;1.78;79.89;95140.75;4015730;34;20016;-84
2022/01/10 02:14:40;;;;;;;13.50;9.70;;;3.10;84.30;;;1.77;80.17;95136.41;4014228;34;20296;-85
2022/01/10 02:17:09;;;;;;;14.85;10.02;;;3.10;84.40;;;1.77;79.96;95146.41;4009932;34;20529;-85
2022/01/10 02:19:40;;;;;;;12.77;8.63;;;3.10;84.40;;;1.79;79.95;95147.78;4033851;34;19996;-85
2022/01/10 02:22:07;;;;;;;12.77;8.80;;;3.10;84.30;;;1.80;80.15;95145.91;4010380;34;20292;-84
2022/01/10 02:24:44;;;;;;;14.15;9.73;;;3.10;84.30;;;1.78;79.74;95148.03;3999324;34;20031;-85
2022/01/10 02:27:11;;;;;;;16.63;11.07;;;3.10;84.30;;;1.77;80.05;95147.19;3996643;34;20007;-84
2022/01/10 02:29:38;;;;;;;14.38;9.82;;;3.10;84.30;;;1.79;80.03;95145.09;4038658;34;20303;-85
2022/01/10 02:32:05;;;;;;;14.55;9.50;;;3.10;84.30;;;1.80;79.93;95146.72;3994119;34;20267;-83
2022/01/10 02:34:31;;;;;;;13.77;9.13;;;3.10;84.30;;;1.78;80.23;95146.13;3997684;34;20092;-84
2022/01/10 02:37:00;;;;;;;14.32;9.27;;;3.10;84.40;;;1.79;80.02;95145.09;4019331;34;20309;-84
2022/01/10 02:39:28;;;;;;;15.63;9.55;;;3.10;84.30;;;1.79;80.26;95152.38;4009005;34;20289;-85
2022/01/10 02:41:55;;;;;;;14.85;10.10;;;3.10;84.30;;;1.79;80.28;95153.19;4019376;34;20313;-84
2022/01/10 02:44:22;;;;;;;14.23;9.77;;;3.10;84.30;;;1.77;80.22;95152.59;4019297;34;20290;-85
2022/01/10 02:46:48;;;;;;;14.35;10.23;;;3.10;84.30;;;1.79;79.79;95161.28;4041100;34;20287;-84
2022/01/10 02:49:28;;;;;;;13.68;9.70;;;3.10;84.30;;;1.79;79.90;95166.66;4031603;34;20323;-84
2022/01/10 02:51:57;;;;;;;15.23;9.70;;;3.10;84.30;;;1.78;79.78;95170.44;3997539;34;20197;-84
2022/01/10 02:54:25;;;;;;;14.23;9.95;;;3.10;84.30;;;1.77;79.79;95168.78;3997179;34;19991;-85
2022/01/10 02:56:55;;;;;;;14.85;10.00;;;3.10;84.30;;;1.76;80.15;95172.53;3997366;34;20035;-84
2022/01/10 02:59:22;;;;;;;16.48;10.82;;;3.10;84.30;;;1.77;80.06;95179.59;3998547;34;20001;-84
2022/01/10 03:01:50;;;;;;;15.52;9.77;;;3.10;84.30;;;1.77;79.97;95173.38;4018843;34;20641;-84
2022/01/10 03:04:17;;;;;;;15.25;9.98;;;3.10;84.30;;;1.78;80.06;95175.81;4042902;34;20343;-84
2022/01/10 03:06:44;;;;;;;15.68;10.60;;;3.10;84.30;;;1.79;80.04;95176.66;4019064;34;20215;-85
2022/01/10 03:09:12;;;;;;;16.65;10.93;;;3.10;84.30;;;1.78;79.89;95169.63;4021382;34;20008;-84
2022/01/10 03:11:41;;;;;;;15.73;10.25;;;3.10;84.30;;;1.78;79.85;95169.63;3976724;34;20015;-83
2022/01/10 03:14:08;;;;;;;17.05;10.35;;;3.10;84.30;;;1.78;79.92;95165.03;3979376;34;20032;-84
2022/01/10 03:16:35;;;;;;;15.77;9.68;;;3.10;84.30;;;1.78;80.29;95178.53;4042526;34;20323;-84
2022/01/10 03:19:02;;;;;;;14.27;9.65;;;3.10;84.30;;;1.76;80.33;95166.34;4020161;34;20027;-84
2022/01/10 03:21:28;;;;;;;17.05;10.68;;;3.10;84.40;;;1.77;80.26;95168.78;4002096;34;20204;-84
2022/01/10 03:23:54;;;;;;;17.10;11.18;;;3.10;84.30;;;1.76;80.25;95169.03;3980772;34;20283;-84
2022/01/10 03:26:24;;;;;;;15.95;10.52;;;3.10;84.30;;;1.76;79.94;95177.94;4001346;34;19993;-84
2022/01/10 03:28:50;;;;;;;15.57;11.02;;;3.10;84.40;;;1.77;79.82;95192.25;4023694;34;20338;-85
2022/01/10 03:31:17;;;;;;;15.98;9.88;;;3.10;84.40;;;1.77;80.18;95186.88;4020666;34;20206;-85
2022/01/10 03:33:44;;;;;;;18.75;10.73;;;3.10;84.40;;;1.77;80.07;95195.78;4021264;34;20620;-84
2022/01/10 03:36:11;;;;;;;15.10;9.90;;;3.10;84.40;;;1.77;80.04;95195.78;4020357;34;20289;-84
2022/01/10 03:38:37;;;;;;;16.02;10.60;;;3.10;84.40;;;1.75;80.17;95197.88;3999571;34;20379;-84
2022/01/10 03:41:04;;;;;;;18.33;11.10;;;3.10;84.40;;;1.77;79.91;95195.78;4000370;34;20408;-85
2022/01/10 03:43:30;;;;;;;16.80;10.63;;;3.10;84.30;;;1.77;80.07;95206.56;3995218;34;20323;-85
2022/01/10 03:45:58;;;;;;;17.10;10.77;;;3.10;84.40;;;1.78;79.91;95199.31;3998488;34;20000;-84
2022/01/10 03:48:24;;;;;;;17.42;11.02;;;3.10;84.30;;;1.78;80.03;95207.41;4021235;34;20319;-84
2022/01/10 03:50:50;;;;;;;17.25;11.68;;;3.10;84.40;;;1.76;79.83;95210.31;4020761;34;19996;-84
2022/01/10 03:53:17;;;;;;;16.77;10.93;;;3.10;84.40;;;1.77;80.05;95205.75;4043080;34;20015;-84
2022/01/10 03:55:44;;;;;;;17.20;10.77;;;3.10;84.40;;;1.80;80.15;95205.28;4005263;34;20075;-84
2022/01/10 03:58:11;;;;;;;17.08;10.75;;;3.10;84.40;;;1.76;80.00;95204.13;3995038;34;20015;-85
2022/01/10 04:00:37;;;;;;;17.10;10.27;;;3.10;84.30;;;1.76;80.21;95215.72;3995488;34;20055;-85
2022/01/10 04:03:06;;;;;;;15.55;10.77;;;3.10;84.30;;;1.77;79.97;95214.66;4037796;34;20722;-85
2022/01/10 04:05:43;;;;;;;18.02;11.60;;;3.10;84.40;;;1.77;80.41;95206.56;3999230;34;20304;-85
2022/01/10 04:08:09;;;;;;;17.33;11.48;;;3.10;84.30;;;1.77;80.09;95211.97;4018264;34;20383;-84
2022/01/10 04:10:35;;;;;;;16.08;10.70;;;3.10;84.40;;;1.76;80.33;95210.31;4001990;34;20054;-84
2022/01/10 04:13:03;;;;;;;16.17;10.57;;;3.10;84.40;;;1.75;80.32;95211.38;4023903;34;20666;-84
2022/01/10 04:15:29;;;;;;;17.85;11.65;;;3.10;84.40;;;1.76;80.25;95217.59;4024695;34;20019;-83
2022/01/10 04:17:57;;;;;;;18.05;12.07;;;3.10;84.40;;;1.76;nan;95215.72;4025499;34;20384;-84
2022/01/10 04:20:24;;;;;;;17.98;11.40;;;3.10;84.40;;;1.75;80.25;95222.16;4020442;34;20373;-85
2022/01/10 04:22:52;;;;;;;18.52;11.50;;;3.10;84.40;;;1.76;79.96;95231.09;4018938;34;20327;-84
2022/01/10 04:25:19;;;;;;;16.48;11.13;;;3.10;84.40;;;1.76;80.30;95237.31;4017090;34;20612;-85
2022/01/10 04:27:45;;;;;;;19.67;12.88;;;3.10;84.40;;;1.76;80.18;95239.19;3995920;34;20571;-84
2022/01/10 04:30:12;;;;;;;17.50;11.27;;;3.10;84.40;;;1.75;80.20;95240.25;4018282;34;20450;-85
2022/01/10 04:32:39;;;;;;;17.15;10.50;;;3.10;84.40;;;1.75;79.90;95229.47;4039622;34;20292;-84
2022/01/10 04:35:07;;;;;;;19.02;12.07;;;3.10;84.40;;;1.76;80.25;95237.31;4038917;34;20020;-84
2022/01/10 04:37:33;;;;;;;18.77;11.98;;;3.10;84.40;;;1.77;80.19;95238.13;3996666;34;20005;-85
2022/01/10 04:40:00;;;;;;;17.42;11.75;;;3.10;84.30;;;1.77;80.16;95248.94;4017833;34;20357;-85
2022/01/10 04:42:26;;;;;;;16.77;10.57;;;3.10;84.40;;;1.75;80.07;95241.06;4059332;34;20084;-84
2022/01/10 04:44:53;;;;;;;18.88;12.07;;;3.10;84.40;;;1.75;80.22;95246.44;4017004;34;20318;-84
2022/01/10 04:47:21;;;;;;;18.27;12.00;;;3.10;84.40;;;1.77;80.23;95260.53;3997621;34;20343;-84
2022/01/10 04:52:23;;;;;;;17.38;10.43;;;3.10;84.40;;;1.76;79.75;95261.59;4036698;34;20305;-84
2022/01/10 04:54:49;;;;;;;19.15;12.50;;;3.10;84.40;;;1.76;79.98;95264.28;3995659;34;20080;-84
2022/01/10 04:57:16;;;;;;;17.75;11.60;;;3.10;84.40;;;1.76;80.12;95266.97;3995649;34;20722;-85
2022/01/10 04:59:42;;;;;;;17.90;11.98;;;3.10;84.40;;;1.76;80.24;95263.47;4016060;34;19991;-84
2022/01/10 05:02:10;;;;;;;18.15;11.43;;;3.10;84.40;;;1.76;80.10;95263.47;3972835;34;20369;-85
2022/01/10 05:04:37;;;;;;;18.10;11.82;;;3.10;84.40;;;1.74;80.09;95266.44;3966424;34;20004;-85
2022/01/10 05:07:04;;;;;;;17.70;11.23;;;3.10;84.30;;;1.74;80.32;95271.81;4008638;34;20059;-85
2022/01/10 05:09:31;;;;;;;19.33;11.25;;;3.10;84.40;;;1.74;79.88;95269.13;4007022;34;20289;-85
2022/01/10 05:12:04;;;;;;;17.42;11.35;;;3.10;84.40;;;1.75;80.01;95276.13;4005806;34;20032;-84
2022/01/10 05:14:32;;;;;;;18.20;11.57;;;3.10;84.40;;;1.76;80.19;95280.47;3990807;34;20016;-85
2022/01/10 05:16:58;;;;;;;18.92;11.73;;;3.10;84.40;;;1.76;79.86;95282.38;4004429;34;20080;-84
2022/01/10 05:19:25;;;;;;;19.10;12.18;;;3.10;84.40;;;1.74;79.90;95288.00;4004760;34;20009;-85
2022/01/10 05:21:51;;;;;;;15.98;10.73;;;3.10;84.40;;;1.76;80.33;95295.84;4006829;34;20001;-84
2022/01/10 05:24:18;;;;;;;16.75;10.80;;;3.10;84.40;;;1.75;79.91;95288.81;4028322;34;20008;-85
2022/01/10 05:26:45;;;;;;;17.98;11.85;;;3.10;84.40;;;1.75;79.83;95295.03;3997747;34;20308;-85
2022/01/10 05:29:14;;;;;;;19.35;11.38;;;3.10;84.40;;;1.75;79.87;95300.41;4011822;34;20300;-85
2022/01/10 05:31:40;;;;;;;18.58;11.27;;;3.10;84.40;;;1.76;79.85;95296.66;4031723;34;20018;-85
2022/01/10 05:34:32;;;;;;;19.83;12.30;;;3.10;84.40;;;1.76;79.78;95312.84;4057159;34;20020;-85
2022/01/10 05:36:59;;;;;;;20.90;12.77;;;3.10;84.40;;;1.76;80.49;95312.03;4031746;34;20654;-84
2022/01/10 05:39:25;;;;;;;23.17;13.35;;;3.10;84.40;;;1.74;80.21;95309.59;4054089;34;20007;-84
2022/01/10 05:41:51;;;;;;;22.25;13.10;;;3.10;84.40;;;1.74;80.19;95317.69;4053525;34;20008;-85
2022/01/10 05:44:19;;;;;;;20.48;13.00;;;3.10;84.40;;;1.75;79.93;95329.28;4032100;34;20675;-85
2022/01/10 05:46:46;;;;;;;19.83;12.32;;;3.10;84.50;;;1.73;79.99;95326.84;4031441;34;20307;-84
2022/01/10 05:49:15;;;;;;;20.15;12.02;;;3.10;84.40;;;1.75;79.73;95338.19;3990730;34;20008;-84
2022/01/10 05:51:41;;;;;;;17.50;11.88;;;3.10;84.40;;;1.75;80.13;95332.78;4012533;34;20004;-84
2022/01/10 05:54:27;;;;;;;19.58;12.35;;;3.10;84.40;;;1.75;79.88;95337.38;4038149;34;20184;-85
2022/01/10 05:56:54;;;;;;;17.58;11.10;;;3.10;84.40;;;1.76;80.20;95330.94;4036872;34;20063;-85
2022/01/10 05:59:23;;;;;;;20.27;12.38;;;3.10;84.40;;;1.74;80.01;95325.78;4010264;34;20095;-84
2022/01/10 06:01:50;;;;;;;19.98;12.02;;;3.10;84.40;;;1.76;79.97;95339.03;3988271;34;20328;-83
2022/01/10 06:04:19;;;;;;;23.00;13.93;;;3.10;84.30;;;1.76;80.47;95344.44;3988635;34;20009;-85
2022/01/10 06:06:46;;;;;;;21.23;13.13;;;3.10;84.40;;;1.75;80.22;95342.78;4011532;34;20008;-84
2022/01/10 06:09:12;;;;;;;20.67;12.32;;;3.10;84.40;;;1.74;80.09;95339.28;3994995;34;20044;-85
2022/01/10 06:11:40;;;;;;;21.30;12.65;;;3.10;84.40;;;1.75;79.84;95348.19;4013916;34;20192;-84
2022/01/10 06:14:08;;;;;;;21.55;12.73;;;3.10;84.40;;;1.74;79.94;95354.63;4014457;34;20095;-86
2022/01/10 06:16:35;;;;;;;19.50;12.27;;;3.10;84.40;;;1.74;79.84;95358.16;4014342;34;20313;-84
2022/01/10 06:19:02;;;;;;;22.10;13.23;;;3.10;84.40;;;1.74;80.24;95358.16;3972740;34;20261;-85
2022/01/10 06:21:29;;;;;;;21.48;13.25;;;3.10;84.50;;;1.74;80.55;95363.56;4015085;34;20453;-84
2022/01/10 06:23:57;;;;;;;19.85;12.05;;;3.10;84.40;;;1.74;80.17;95357.31;4014602;34;20016;-84
2022/01/10 06:26:23;;;;;;;20.63;12.35;;;3.10;84.40;;;1.73;80.02;95356.53;3991977;34;20274;-85
2022/01/10 06:28:49;;;;;;;20.33;12.13;;;3.10;84.40;;;1.74;80.04;95358.16;4031300;34;20083;-84
2022/01/10 06:31:16;;;;;;;19.63;12.00;;;3.10;84.40;;;1.74;80.33;95368.97;4035998;34;20309;-84
2022/01/10 06:33:50;;;;;;;19.98;12.30;;;3.10;84.40;;;1.75;80.09;95364.38;4037475;34;20075;-84
2022/01/10 06:36:17;;;;;;;21.58;13.50;;;3.10;84.40;;;1.75;79.69;95375.16;4056760;34;20729;-85
2022/01/10 06:38:46;;;;;;;21.67;12.63;;;3.10;84.40;;;1.73;80.36;95375.41;4056826;34;20387;-85
2022/01/10 06:41:13;;;;;;;19.45;12.43;;;3.10;84.40;;;1.75;80.04;95377.84;4014651;34;19996;-84
2022/01/10 06:43:40;;;;;;;20.30;12.63;;;3.10;84.40;;;1.74;80.27;95371.66;4035947;34;20404;-84
2022/01/10 06:46:08;;;;;;;20.05;12.20;;;3.10;84.50;;;1.73;80.26;95374.56;4014852;34;20012;-85
2022/01/10 06:48:35;;;;;;;23.05;12.27;;;3.10;84.40;;;1.75;80.03;95375.97;4046097;34;19993;-84
2022/01/10 06:51:02;;;;;;;21.35;12.00;;;3.10;84.40;;;1.72;80.18;95376.47;4036154;34;20523;-84
2022/01/10 06:53:29;;;;;;;20.73;11.93;;;3.10;84.40;;;1.74;80.17;95378.91;3992658;34;20000;-84
2022/01/10 06:55:57;;;;;;;19.85;12.15;;;3.10;84.40;;;1.74;80.18;95385.16;4013757;34;20024;-84
2022/01/10 06:58:23;;;;;;;22.42;13.05;;;3.00;84.40;;;1.74;80.22;95389.72;4022471;34;20004;-85
2022/01/10 07:00:50;;;;;;;19.73;13.30;;;3.00;84.30;;;1.74;79.86;95393.25;3995533;34;20288;-85
2022/01/10 07:03:16;;;;;;;20.83;13.30;;;3.00;84.30;;;1.75;80.01;95391.34;4015925;34;20259;-85
2022/01/10 07:05:54;;;;;;;20.15;12.57;;;3.10;84.50;;;1.75;80.33;95402.16;4000482;34;20398;-84
2022/01/10 07:08:22;;;;;;;19.80;12.10;;;3.10;84.40;;;1.74;80.26;95395.94;3994796;34;20005;-83
2022/01/10 07:10:52;;;;;;;20.33;12.27;;;3.10;84.40;;;1.75;80.06;95402.94;3996817;34;20529;-84
2022/01/10 07:13:21;;;;;;;19.92;12.07;;;3.10;84.50;;;1.74;79.98;95397.81;4016862;34;19997;-84
2022/01/10 07:15:49;;;;;;;21.13;12.98;;;3.10;84.40;;;1.74;80.29;95401.34;4016897;34;20335;-84
2022/01/10 07:18:15;;;;;;;17.42;11.32;;;3.10;84.40;;;1.74;80.04;95395.94;4016287;34;20298;-84
2022/01/10 07:20:46;;;;;;;21.92;13.13;;;3.10;84.40;;;1.74;80.12;95406.72;4016234;34;20015;-84
2022/01/10 07:23:14;;;;;;;19.85;13.00;;;3.10;84.40;;;1.73;80.34;95405.09;3993539;34;20321;-84
2022/01/10 07:25:40;;;;;;;18.88;12.48;;;3.10;84.40;;;1.74;80.27;95404.03;3992507;34;20324;-84
2022/01/10 07:28:06;;;;;;;20.90;13.23;;;3.10;84.50;;;1.73;80.07;95399.69;3993175;34;20005;-84
2022/01/10 07:30:33;;;;;;;18.83;12.35;;;3.10;84.40;;;1.75;79.93;95412.94;4014386;34;20301;-84
2022/01/10 07:32:59;;;;;;;19.67;11.95;;;3.10;84.40;;;1.73;80.26;95415.88;4014317;34;19993;-83
2022/01/10 07:35:26;;;;;;;18.77;12.18;;;3.10;84.40;;;1.75;80.06;95411.06;4013068;34;20005;-83
2022/01/10 07:37:52;;;;;;;20.42;13.13;;;3.10;84.40;;;1.75;80.31;95418.34;4016186;34;20323;-84
2022/01/10 07:40:18;;;;;;;18.80;12.63;;;3.10;84.40;;;1.74;79.85;95412.13;3994870;34;19992;-83
2022/01/10 07:42:45;;;;;;;22.27;12.93;;;3.10;84.40;;;1.74;80.29;95412.13;3995464;34;20350;-83
2022/01/10 07:45:15;;;;;;;17.42;11.18;;;3.10;84.40;;;1.76;80.17;95422.69;3997086;34;20016;-83
2022/01/10 07:47:42;;;;;;;19.65;12.07;;;3.10;84.40;;;1.74;80.14;95422.94;4016718;34;20870;-83
2022/01/10 07:50:09;;;;;;;21.60;12.82;;;3.10;84.30;;;1.76;80.06;95423.50;3996577;34;20207;-83
2022/01/10 07:52:35;;;;;;;19.30;11.82;;;3.10;84.30;;;1.76;80.18;95420.78;4021766;34;20009;-83
2022/01/10 07:55:03;;;;;;;20.73;12.15;;;3.10;84.30;;;1.76;79.66;95431.59;4012942;34;20313;-84
2022/01/10 07:57:29;;;;;;;19.67;12.38;;;3.10;84.30;;;1.77;80.18;95429.72;4018861;34;20044;-83
2022/01/10 07:59:55;;;;;;;18.48;11.45;;;3.10;84.30;;;1.75;80.06;95424.53;4009154;34;20260;-84
2022/01/10 08:02:22;;;;;;;19.42;11.88;;;3.10;84.30;;;1.76;80.33;95430.78;4037621;34;20311;-84
2022/01/10 08:04:51;;;;;;;20.95;12.75;;;3.10;84.30;;;1.75;80.17;95427.25;4058190;34;20308;-84
2022/01/10 08:07:17;;;;;;;21.15;13.05;;;3.10;84.30;;;1.77;79.89;95427.03;4077853;34;20005;-84
2022/01/10 08:09:44;;;;;;;18.80;11.48;;;3.10;84.20;;;1.78;79.78;95431.38;4010750;34;20580;-83
2022/01/10 08:12:10;;;;;;;19.40;12.13;;;3.10;84.20;;;1.77;80.02;95425.13;4010152;34;19989;-84
2022/01/10 08:14:36;;;;;;;18.73;12.00;;;3.10;84.10;;;1.77;80.22;95427.84;4042572;34;20095;-84
2022/01/10 08:17:03;;;;;;;19.52;11.35;;;3.10;84.20;;;1.79;80.10;95436.53;4010378;34;20300;-84
2022/01/10 08:19:33;;;;;;;20.20;12.13;;;3.10;84.20;;;1.79;79.77;95424.91;4011674;34;20313;-83
2022/01/10 08:22:01;;;;;;;20.15;12.13;;;3.10;84.10;;;1.78;79.59;95431.38;4011783;34;20616;-83
2022/01/10 08:24:28;;;;;;;18.60;11.60;;;3.10;84.10;;;1.80;79.66;95435.47;3986946;34;20368;-83
2022/01/10 08:26:55;;;;;;;18.63;12.30;;;3.10;84.10;;;1.79;79.84;95431.13;4008313;34;20314;-83
2022/01/10 08:29:22;;;;;;;17.35;11.02;;;3.10;84.10;;;1.81;79.57;95433.56;3986621;34;20124;-83
2022/01/10 08:31:48;;;;;;;18.17;12.32;;;3.10;84.10;;;1.81;79.73;95439.81;3985798;34;20306;-83
2022/01/10 08:34:14;;;;;;;17.98;11.02;;;3.10;84.00;;;1.79;79.74;95439.22;4011188;34;20087;-83
2022/01/10 08:36:41;;;;;;;17.65;11.45;;;3.10;84.00;;;1.80;79.69;95440.88;4050312;34;20294;-84
2022/01/10 08:39:08;;;;;;;19.77;12.32;;;3.10;84.00;;;1.79;79.41;95444.63;4029045;34;19989;-83
2022/01/10 08:41:37;;;;;;;19.10;11.00;;;3.20;83.90;;;1.81;79.43;95444.38;4028790;34;20008;-83
2022/01/10 08:44:04;;;;;;;19.00;12.00;;;3.20;83.90;;;1.80;79.87;95440.88;3965103;34;20003;-84
2022/01/10 08:46:31;;;;;;;17.88;11.40;;;3.10;83.90;;;1.80;79.73;95443.56;4029566;34;20609;-83
2022/01/10 08:48:57;;;;;;;17.15;11.02;;;3.20;83.90;;;1.81;79.94;95445.22;4008571;34;20005;-82
2022/01/10 08:51:24;;;;;;;20.25;11.77;;;3.20;83.80;;;1.80;79.50;95443.56;4049309;34;20292;-84
2022/01/10 08:53:51;;;;;;;16.98;10.95;;;3.10;83.80;;;1.81;79.83;95445.22;4052502;34;20001;-83
2022/01/10 08:56:17;;;;;;;19.50;11.23;;;3.10;83.80;;;1.80;79.54;95443.56;4008145;34;20024;-84
2022/01/10 08:58:44;;;;;;;19.45;11.35;;;3.10;83.80;;;1.81;80.04;95453.31;4009427;34;20641;-83
2022/01/10 09:01:10;;;;;;;17.05;11.30;;;3.10;84.00;;;1.81;79.61;95449.75;4012966;34;20296;-83
2022/01/10 09:03:37;;;;;;;16.90;10.85;;;3.10;83.90;;;1.81;79.47;95449.75;4036758;34;20055;-83
2022/01/10 09:06:03;;;;;;;16.83;10.73;;;3.10;83.90;;;1.81;79.90;95445.22;4012747;34;19997;-83
2022/01/10 09:08:34;;;;;;;18.13;10.75;;;3.10;83.90;;;1.80;79.61;95448.97;4031870;34;20317;-83
2022/01/10 09:11:01;;;;;;;20.30;11.82;;;3.10;83.80;;;1.80;79.95;95448.97;4015645;34;20319;-83
2022/01/10 09:13:28;;;;;;;16.83;10.82;;;3.20;83.80;;;1.81;79.73;95445.22;4036783;34;20008;-84
2022/01/10 09:15:54;;;;;;;18.02;11.30;;;3.20;83.80;;;1.81;79.34;95439.81;4014483;34;20333;-83
2022/01/10 09:18:21;;;;;;;18.38;11.60;;;3.20;83.80;;;1.82;79.63;95437.91;4015233;34;20012;-83
2022/01/10 09:20:47;;;;;;;16.67;10.32;;;3.10;83.70;;;1.82;79.39;95446.00;4015611;34;20547;-83
2022/01/10 09:23:13;;;;;;;18.17;11.13;;;3.20;83.70;;;1.83;79.73;95443.09;4011572;34;20013;-83
2022/01/10 09:25:40;;;;;;;19.17;11.05;;;3.20;83.70;;;1.82;79.65;95435.22;4009228;34;20274;-83
2022/01/10 09:28:06;;;;;;;15.60;10.80;;;3.20;83.70;;;1.82;79.56;95440.63;4011116;34;20299;-83
2022/01/10 09:30:32;;;;;;;16.33;10.93;;;3.20;83.70;;;1.82;79.43;95438.75;4015424;34;20032;-83
2022/01/10 09:32:58;;;;;;;16.88;11.38;;;3.20;83.60;;;1.82;79.32;95441.47;4015303;34;20718;-83
2022/01/10 09:35:25;;;;;;;18.45;12.10;;;3.20;83.70;;;1.83;79.71;95447.66;4014814;34;20377;-84
2022/01/10 09:37:51;;;;;;;20.38;12.30;;;3.20;83.60;;;1.83;79.56;95435.00;4036835;34;19992;-83
2022/01/10 09:40:18;;;;;;;18.38;10.95;;;3.20;83.60;;;1.83;79.23;95440.41;4038756;34;20076;-84
2022/01/10 09:42:45;;;;;;;20.80;12.68;;;3.10;84.50;;;1.84;79.77;95438.50;4017609;34;20005;-83
2022/01/10 09:45:12;;;;;;;17.65;11.48;;;3.20;83.60;;;1.82;79.68;95446.84;4017308;34;20273;-84
2022/01/10 09:47:38;;;;;;;19.92;10.95;;;3.20;83.60;;;1.83;79.67;95448.50;4016960;34;20004;-83
2022/01/10 09:50:07;;;;;;;17.77;11.15;;;3.20;83.60;;;1.84;79.26;95449.31;3974652;34;20368;-83
2022/01/10 09:52:34;;;;;;;18.67;10.68;;;3.20;83.60;;;1.84;79.53;95452.84;4016667;34;20645;-84
2022/01/10 09:55:00;;;;;;;21.30;11.52;;;3.20;83.60;;;1.85;79.43;95456.34;4016386;34;20016;-84
2022/01/10 09:57:26;;;;;;;20.08;11.60;;;3.20;83.60;;;1.84;79.46;95454.69;4056193;34;20041;-84
2022/01/10 09:59:53;;;;;;;15.77;10.18;;;3.20;83.60;;;1.86;79.40;95457.19;3994806;34;20682;-83
2022/01/10 10:02:20;;;;;;;20.17;11.77;;;3.20;83.60;;;1.86;79.12;95449.09;4060943;34;20564;-84
2022/01/10 10:04:46;;;;;;;15.48;10.20;;;3.20;83.60;;;1.84;79.41;95447.44;4016781;34;20407;-83
2022/01/10 10:07:13;;;;;;;18.92;11.75;;;3.20;83.50;;;1.84;79.27;95447.44;4060763;34;20294;-83
2022/01/10 10:09:40;;;;;;;17.42;10.75;;;3.20;83.50;;;1.83;79.13;95453.91;4060440;34;20297;-83
2022/01/10 10:12:07;;;;;;;18.08;10.63;;;3.20;83.50;;;1.86;79.41;95463.41;4015928;34;20004;-83
2022/01/10 10:14:33;;;;;;;18.08;10.73;;;3.20;83.40;;;1.86;79.22;95454.50;3992845;34;20001;-83
2022/01/10 10:17:07;;;;;;;17.02;11.48;;;3.20;83.50;;;1.87;79.37;95464.22;3993472;34;20326;-83
2022/01/10 10:19:34;;;;;;;17.85;10.40;;;3.20;83.50;;;1.87;79.31;95466.94;3995726;34;20645;-84
2022/01/10 10:22:00;;;;;;;18.63;11.27;;;3.20;83.50;;;1.86;79.55;95458.00;3992582;34;20000;-84
2022/01/10 10:24:27;;;;;;;17.20;10.15;;;3.20;83.40;;;1.87;79.02;95462.34;4014577;34;20308;-84
2022/01/10 10:26:54;;;;;;;18.33;10.82;;;3.20;83.40;;;1.87;78.84;95458.84;4001128;34;20039;-84
2022/01/10 10:29:20;;;;;;;17.50;10.27;;;3.20;83.40;;;1.90;79.32;95466.44;3973377;34;19984;-84